Time;durP1;ratioP1;P1;durP2;ratioP2;P2;SDS_P1;SDS_P2;PMS_P1;PMS_P2;Temp;Humidity;BMP_temperature;BMP_pressure;BME280_temperature;BME280_humidity;BME280_pressure;Samples;Min_cycle;Max_cycle;Signal;HPM_P1;HPM_P2
2023/02/17 09:14:18;;;;;;;;;;;;;;;11.08;69.69;100597.19;5041412;27;3208601;-77
2023/02/17 09:16:44;;;;;;;;;;;;;;;11.22;71.37;100597.28;5156043;27;1289;-77
2023/02/17 09:19:11;;;;;;;;;;;;;;;11.36;72.88;100591.00;5175376;27;806;-77
2023/02/17 09:21:37;;;;;;;;;;;;;;;11.70;70.14;100585.19;5175029;27;892;-76
2023/02/17 09:24:04;;;;;;;;;;;;;;;11.80;67.08;100575.34;5156632;27;1189;-80
2023/02/17 09:26:33;;;;;;;;;;;;;;;11.63;67.45;100583.19;5174161;27;821;-79
2023/02/17 09:29:02;;;;;;;;;;;;;;;11.78;66.10;100575.72;5174389;27;880;-77
2023/02/17 09:31:29;;;;;;;;;;;;;;;11.84;65.91;100576.13;5174135;27;831;-76
2023/02/17 09:33:56;;;;;;;;;;;;;;;12.03;65.52;100563.91;5172505;27;912;-76
2023/02/17 09:36:26;;;;;;;;;;;;;;;12.33;65.70;100557.19;5153818;27;847;-75
2023/02/17 09:38:53;;;;;;;;;;;;;;;12.05;63.85;100569.84;5171422;27;822;-78
2023/02/17 10:09:51;;;;;;;;;;;;;;;13.10;60.52;100526.16;5448728;22;1670;-75
2023/02/17 10:12:26;;;;;;;;;;;;;;;13.28;59.57;100532.44;5068663;28;1258;-77
2023/02/17 10:15:06;;;;;;;;;;;;;;;13.37;59.17;100523.69;5052216;28;1184;-80
2023/02/17 10:17:36;;;;;;;;;;;;;;;13.34;58.58;100524.53;5069817;28;802;-76
2023/02/17 10:20:09;;;;;;;;;;;;;;;13.07;59.22;100525.75;5050616;28;1065;-76
2023/02/17 10:22:41;;;;;;;;;;;;;;;13.00;59.78;100522.25;5053006;28;1963;-75
2023/02/17 10:47:27;;;;;;;;;;;;;;;12.91;59.80;100489.38;4976166;28;1199;-79
2023/02/17 10:49:55;;;;;;;;;;;;;;;12.68;59.74;100492.59;4976979;28;799;-78
2023/02/17 10:52:52;;;;;;;;;;;;;;;12.61;60.86;100487.88;4977705;28;791;-77
2023/02/17 10:55:27;;;;;;;;;;;;;;;;;;;;;
2023/02/17 10:58:14;;;;;;;;;;;;;;;13.10;59.12;100482.56;4936108;28;1237;-78
2023/02/17 11:00:41;;;;;;;;;;;;;;;13.10;58.45;100474.25;4959985;28;1170;-78
2023/02/17 11:03:29;;;;;;;;;;;;;;;13.06;59.32;100470.69;4959024;28;1875;-77
2023/02/17 11:06:00;;;;;;;;;;;;;;;13.01;59.37;100463.53;4974649;28;1174;-75
2023/02/17 11:08:34;;;;;;;;;;;;;;;12.78;59.42;100469.59;4959443;28;1196;-76
2023/02/17 11:11:02;;;;;;;;;;;;;;;12.70;58.27;100464.47;4975837;28;799;-75
2023/02/17 11:13:52;;;;;;;;;;;;;;;12.70;58.23;100464.47;4976170;28;1036;-76
2023/02/17 11:16:24;;;;;;;;;;;;;;;12.99;58.75;100465.16;4968166;28;1349;-76
2023/02/17 11:18:54;;;;;;;;;;;;;;;13.24;58.54;100465.81;4975151;28;1546;-79
2023/02/17 11:34:42;;;;;;;;;;;;;;;14.56;54.22;100435.44;6102534;22;1845;-78
2023/02/17 11:45:58;;;;;;;;;;;;;;;15.15;46.89;100422.38;5052464;28;1379;-77
2023/02/17 12:28:13;;;;;;;;;;;;;;;17.31;35.38;100356.66;5205411;22;1550;-77
2023/02/17 13:40:21;;;;;;;;;;;;;;;17.41;34.00;100348.44;5677895;23;2646;-76
2023/02/17 14:40:23;;;;;;;;;;;;;;;15.57;35.87;100340.16;6053727;22;2459;-77
2023/02/17 14:42:50;;;;;;;;;;;;;;;15.43;36.23;100335.63;4993340;28;1903;-76
2023/02/17 14:57:18;;;;;;;;;;;;;;;14.73;37.11;100358.53;5040499;22;1839;-75
2023/02/17 14:59:45;;;;;;;;;;;;;;;14.73;34.91;100350.19;5016058;28;1247;-75
2023/02/17 15:02:23;;;;;;;;;;;;;;;14.77;34.15;100350.94;5016494;28;1910;-74
2023/02/17 15:08:02;;;;;;;;;;;;;;;14.86;31.48;100353.97;5033654;28;613;-74
2023/02/17 15:16:22;;;;;;;;;;;;;;;14.77;30.71;100364.84;5031244;28;710;-74
2023/02/17 15:21:51;;;;;;;;;;;;;;;14.56;32.12;100359.56;5033622;28;609;-74
2023/02/17 15:24:19;;;;;;;;;;;;;;;14.44;32.65;100367.19;5033768;28;1951;-74
2023/02/17 15:26:46;;;;;;;;;;;;;;;14.34;33.09;100364.53;5016080;28;1082;-75
2023/02/17 15:29:20;;;;;;;;;;;;;;;14.30;33.68;100367.38;5015918;28;1371;-75
2023/02/17 15:31:48;;;;;;;;;;;;;;;14.36;33.49;100368.50;5033234;28;905;-76
2023/02/17 15:37:16;;;;;;;;;;;;;;;14.36;33.39;100376.84;5033308;28;652;-74
2023/02/17 15:39:43;;;;;;;;;;;;;;;14.26;33.48;100378.53;5033078;28;929;-74
2023/02/17 15:42:13;;;;;;;;;;;;;;;14.17;33.32;100377.44;5015622;28;1937;-75
2023/02/17 15:44:55;;;;;;;;;;;;;;;14.05;33.30;100387.88;5032955;28;822;-75
2023/02/17 15:47:21;;;;;;;;;;;;;;;13.92;33.70;100392.38;5033144;28;977;-74
2023/02/17 15:49:48;;;;;;;;;;;;;;;13.83;33.66;100400.41;5015351;28;1069;-74
2023/02/17 15:52:15;;;;;;;;;;;;;;;13.81;34.13;100391.69;5032921;28;877;-73
2023/02/17 15:54:42;;;;;;;;;;;;;;;13.62;34.57;100402.13;5032724;28;775;-74
2023/02/17 16:03:12;;;;;;;;;;;;;;;13.21;35.47;100421.44;4971837;28;1899;-73
2023/02/17 16:05:39;;;;;;;;;;;;;;;13.13;35.54;100409.59;5023364;28;1109;-73
2023/02/17 16:08:05;;;;;;;;;;;;;;;12.99;35.46;100407.66;5052395;28;807;-74
2023/02/17 16:10:33;;;;;;;;;;;;;;;12.79;35.86;100410.16;5052448;28;865;-73
2023/02/17 16:13:00;;;;;;;;;;;;;;;12.59;36.43;100418.16;5052289;28;818;-74
2023/02/17 16:18:23;;;;;;;;;;;;;;;12.45;36.40;100427.28;5052504;28;688;-74
2023/02/17 16:20:50;;;;;;;;;;;;;;;12.39;36.98;100422.56;5052210;28;854;-73
2023/02/17 16:23:17;;;;;;;;;;;;;;;12.22;36.97;100424.19;5033753;28;1930;-72
2023/02/17 16:25:44;;;;;;;;;;;;;;;11.65;39.16;100424.97;5034180;28;1420;-73
2023/02/17 16:28:14;;;;;;;;;;;;;;;11.03;40.81;100428.78;5052139;28;760;-73
2023/02/17 16:30:41;;;;;;;;;;;;;;;10.70;42.00;100432.63;5052088;28;931;-72
2023/02/17 16:33:08;;;;;;;;;;;;;;;10.42;42.55;100434.06;5052078;28;819;-73
2023/02/17 16:35:35;;;;;;;;;;;;;;;10.36;43.28;100439.16;5052095;28;810;-73
2023/02/17 16:38:06;;;;;;;;;;;;;;;10.16;43.72;100437.81;5034210;28;1369;-73
2023/02/17 16:40:34;;;;;;;;;;;;;;;9.91;44.58;100438.41;5051992;28;864;-74
2023/02/17 16:43:02;;;;;;;;;;;;;;;9.73;44.83;100438.28;5051926;28;1957;-74
2023/02/17 16:45:30;;;;;;;;;;;;;;;9.54;45.98;100441.28;5051916;28;763;-74
2023/02/17 16:47:58;;;;;;;;;;;;;;;9.29;46.43;100441.78;5033893;28;1180;-74
2023/02/17 16:51:01;;;;;;;;;;;;;;;9.13;46.63;100447.56;5051804;28;894;-74
2023/02/17 16:59:30;;;;;;;;;;;;;;;8.73;48.54;100465.56;5051872;28;1164;-74
2023/02/17 17:01:56;;;;;;;;;;;;;;;8.64;48.79;100464.25;5051820;28;783;-74
2023/02/17 17:04:23;;;;;;;;;;;;;;;8.56;48.87;100455.91;5051852;28;1898;-73
2023/02/17 17:06:51;;;;;;;;;;;;;;;8.53;48.70;100461.34;5051335;28;859;-74
2023/02/17 17:09:19;;;;;;;;;;;;;;;8.47;49.80;100458.13;5051651;28;782;-73
2023/02/17 17:11:46;;;;;;;;;;;;;;;8.52;49.15;100449.53;5051662;28;1137;-73
2023/02/17 17:14:13;;;;;;;;;;;;;;;8.58;48.97;100453.56;5051549;28;856;-73
2023/02/17 17:16:40;;;;;;;;;;;;;;;8.56;49.04;100460.63;5051620;28;873;-74
2023/02/17 17:19:09;;;;;;;;;;;;;;;8.50;49.21;100462.88;5051732;28;1018;-74
2023/02/17 17:21:36;;;;;;;;;;;;;;;8.60;49.02;100466.97;5033352;28;1184;-74
2023/02/17 17:24:03;;;;;;;;;;;;;;;8.58;48.55;100463.78;5051409;28;1882;-73
2023/02/17 17:26:38;;;;;;;;;;;;;;;8.60;48.75;100466.97;5033589;28;1303;-74
2023/02/17 17:29:06;;;;;;;;;;;;;;;8.62;49.10;100469.34;5051350;28;779;-73
2023/02/17 17:31:32;;;;;;;;;;;;;;;8.63;49.33;100465.44;5051928;28;830;-73
2023/02/17 17:33:59;;;;;;;;;;;;;;;8.54;49.35;100468.47;5051942;28;795;-74
2023/02/17 17:36:39;;;;;;;;;;;;;;;8.30;50.33;100464.94;5055336;28;860;-73
2023/02/17 17:39:06;;;;;;;;;;;;;;;8.11;50.53;100468.59;5055356;28;814;-73
2023/02/17 17:41:33;;;;;;;;;;;;;;;8.12;50.75;100469.38;5055366;28;842;-74
2023/02/17 17:43:59;;;;;;;;;;;;;;;8.14;50.65;100470.59;5055214;28;1882;-75
2023/02/17 17:46:28;;;;;;;;;;;;;;;8.18;50.24;100465.94;5055261;28;829;-75
2023/02/17 17:48:57;;;;;;;;;;;;;;;8.26;50.82;100475.09;5055153;28;802;-74
2023/02/17 17:54:17;;;;;;;;;;;;;;;8.24;51.82;100477.44;5023686;28;1183;-73
2023/02/17 17:56:43;;;;;;;;;;;;;;;8.26;52.00;100475.09;5054718;28;1428;-73
2023/02/17 17:59:11;;;;;;;;;;;;;;;8.41;51.57;100478.91;5054920;28;794;-73
2023/02/17 18:01:38;;;;;;;;;;;;;;;8.45;51.58;100465.16;5054759;28;881;-73
2023/02/17 18:04:06;;;;;;;;;;;;;;;8.37;52.00;100478.03;5054811;28;1891;-74
2023/02/17 18:06:44;;;;;;;;;;;;;;;8.27;52.91;100473.94;5055403;28;831;-74
2023/02/17 18:09:16;;;;;;;;;;;;;;;8.34;52.56;100471.31;5035827;28;1263;-73
2023/02/17 18:11:43;;;;;;;;;;;;;;;8.36;52.13;100484.69;5036597;28;1350;-73
2023/02/17 18:14:11;;;;;;;;;;;;;;;8.21;53.54;100480.13;5054903;28;826;-73
2023/02/17 18:16:38;;;;;;;;;;;;;;;8.06;54.83;100479.91;5054729;28;883;-72
2023/02/17 18:19:06;;;;;;;;;;;;;;;7.99;54.94;100477.03;5054855;28;958;-72
2023/02/17 18:21:34;;;;;;;;;;;;;;;7.99;55.08;100477.03;5054546;28;806;-73
2023/02/17 18:24:02;;;;;;;;;;;;;;;7.98;55.17;100476.25;5054360;28;1881;-74
2023/02/17 18:26:28;;;;;;;;;;;;;;;7.93;54.77;100473.00;5054324;28;853;-75
2023/02/17 18:28:55;;;;;;;;;;;;;;;7.93;55.23;100479.28;5054523;28;862;-75
2023/02/17 18:31:25;;;;;;;;;;;;;;;7.96;55.07;100484.06;5054378;28;817;-73
2023/02/17 18:33:52;;;;;;;;;;;;;;;8.01;55.44;100484.94;5054526;28;818;-73
2023/02/17 18:36:20;;;;;;;;;;;;;;;7.92;55.79;100485.97;5054522;28;865;-72
2023/02/17 18:38:47;;;;;;;;;;;;;;;7.81;55.27;100490.50;5054226;28;822;-73
2023/02/17 18:41:44;;;;;;;;;;;;;;;7.75;55.58;100498.25;5054462;28;838;-74
2023/02/17 18:44:12;;;;;;;;;;;;;;;7.63;55.89;100497.66;5015414;28;1947;-73
2023/02/17 18:49:25;;;;;;;;;;;;;;;7.67;56.04;100498.50;5012466;28;1327;-74
2023/02/17 18:51:53;;;;;;;;;;;;;;;7.67;56.20;100498.50;5053856;28;854;-72
2023/02/17 18:54:19;;;;;;;;;;;;;;;7.74;56.23;100487.63;5053997;28;946;-73
2023/02/17 18:56:46;;;;;;;;;;;;;;;7.76;55.99;100493.56;5053624;28;1405;-73
2023/02/17 18:59:12;;;;;;;;;;;;;;;7.71;56.11;100493.88;5053864;28;819;-72
2023/02/17 19:01:39;;;;;;;;;;;;;;;7.66;56.37;100492.22;5053606;28;907;-74
2023/02/17 19:04:08;;;;;;;;;;;;;;;7.62;56.41;100498.78;5053753;28;1910;-73
2023/02/17 19:06:35;;;;;;;;;;;;;;;7.57;56.46;100486.94;5053652;28;881;-73
2023/02/17 19:09:03;;;;;;;;;;;;;;;7.55;56.24;100494.78;5054007;28;858;-76
2023/02/17 19:11:29;;;;;;;;;;;;;;;7.35;57.48;100495.94;5035886;28;1395;-75
2023/02/17 19:13:56;;;;;;;;;;;;;;;7.13;58.14;100490.03;5053667;28;822;-75
2023/02/17 19:16:24;;;;;;;;;;;;;;;6.98;58.70;100496.41;5053518;28;834;-74
2023/02/17 19:18:51;;;;;;;;;;;;;;;6.99;58.61;100489.75;5053394;28;1007;-74
2023/02/17 19:21:18;;;;;;;;;;;;;;;6.95;58.27;100491.63;5035448;28;886;-74
2023/02/17 19:23:45;;;;;;;;;;;;;;;7.05;58.19;100490.25;5053385;28;1951;-73
2023/02/17 19:26:12;;;;;;;;;;;;;;;7.15;57.63;100484.97;5053287;28;917;-73
2023/02/17 19:28:39;;;;;;;;;;;;;;;7.05;57.81;100485.56;5035568;28;1433;-74
2023/02/17 19:31:07;;;;;;;;;;;;;;;7.03;57.93;100496.09;5053131;28;813;-74
2023/02/17 19:33:34;;;;;;;;;;;;;;;7.28;55.96;100487.56;5053218;28;822;-74
2023/02/17 19:36:05;;;;;;;;;;;;;;;7.95;53.89;100492.69;5053206;28;818;-74
2023/02/17 19:38:31;;;;;;;;;;;;;;;8.36;51.87;100490.19;5053056;28;896;-73
2023/02/17 19:41:00;;;;;;;;;;;;;;;8.51;50.12;100488.47;5053219;28;929;-73
2023/02/17 19:43:27;;;;;;;;;;;;;;;8.56;50.56;100494.47;5035049;28;1901;-75
2023/02/17 19:45:54;;;;;;;;;;;;;;;8.33;50.46;100486.22;5052979;28;775;-74
2023/02/17 19:48:23;;;;;;;;;;;;;;;8.05;51.55;100496.81;5053161;28;736;-72
2023/02/17 19:50:57;;;;;;;;;;;;;;;7.85;51.83;100494.13;5052867;28;830;-73
2023/02/17 19:53:25;;;;;;;;;;;;;;;7.73;51.62;100494.28;5052912;28;897;-72
2023/02/17 19:55:51;;;;;;;;;;;;;;;7.85;51.28;100494.13;5052779;28;838;-74
2023/02/17 19:58:17;;;;;;;;;;;;;;;8.20;50.60;100490.34;5051818;28;1188;-73
2023/02/17 20:00:45;;;;;;;;;;;;;;;8.42;49.08;100493.47;5052589;28;885;-75
2023/02/17 20:03:24;;;;;;;;;;;;;;;;;;;;;
2023/02/17 20:06:03;;;;;;;;;;;;;;;;;;;;;
2023/02/17 20:08:30;;;;;;;;;;;;;;;7.24;52.86;100494.97;5052711;28;562;-74
2023/02/17 20:10:57;;;;;;;;;;;;;;;6.89;53.96;100496.63;5034625;28;849;-73
2023/02/17 20:13:24;;;;;;;;;;;;;;;6.54;55.70;100502.91;5052489;28;909;-73
2023/02/17 20:16:06;;;;;;;;;;;;;;;6.01;57.72;100510.69;5053100;28;845;-75
2023/02/17 20:21:24;;;;;;;;;;;;;;;4.96;61.96;100502.75;5042161;28;1515;-74
2023/02/17 20:23:52;;;;;;;;;;;;;;;4.70;63.67;100504.75;5053644;28;1898;-74
2023/02/17 20:26:24;;;;;;;;;;;;;;;4.66;65.06;100505.78;5035714;28;1259;-75
2023/02/17 20:28:50;;;;;;;;;;;;;;;4.56;66.23;100501.56;5054275;28;905;-75
2023/02/17 20:31:18;;;;;;;;;;;;;;;4.49;66.85;100498.63;5054352;28;859;-74
2023/02/17 20:33:44;;;;;;;;;;;;;;;4.62;66.53;100499.41;5054942;28;854;-74
2023/02/17 20:36:11;;;;;;;;;;;;;;;4.77;66.19;100489.69;5054432;28;834;-74
2023/02/17 20:38:41;;;;;;;;;;;;;;;4.97;64.57;100491.44;5035775;28;1346;-75
2023/02/17 20:41:08;;;;;;;;;;;;;;;5.10;63.83;100484.78;5036273;28;1141;-75
2023/02/17 20:43:36;;;;;;;;;;;;;;;5.20;63.52;100488.16;5053310;28;1947;-75
2023/02/17 20:46:03;;;;;;;;;;;;;;;4.99;63.43;100489.13;5035780;28;1374;-73
2023/02/17 20:48:29;;;;;;;;;;;;;;;4.82;64.52;100489.41;5053673;28;834;-75
2023/02/17 20:50:56;;;;;;;;;;;;;;;4.95;63.71;100482.78;5053867;28;795;-72
2023/02/17 20:53:22;;;;;;;;;;;;;;;5.24;62.66;100486.31;5034738;28;1189;-73
2023/02/17 20:55:48;;;;;;;;;;;;;;;5.43;62.80;100480.16;5052349;28;881;-73
2023/02/17 20:58:15;;;;;;;;;;;;;;;5.48;62.12;100488.94;5052030;28;1414;-76
2023/02/17 21:00:42;;;;;;;;;;;;;;;5.39;62.33;100487.50;5052542;28;877;-73
2023/02/17 21:03:08;;;;;;;;;;;;;;;5.31;63.23;100481.00;5034219;28;1954;-73
2023/02/17 21:05:35;;;;;;;;;;;;;;;5.35;63.52;100481.13;5052688;28;858;-76
2023/02/17 21:08:01;;;;;;;;;;;;;;;5.38;63.35;100489.44;5034876;28;1040;-75
2023/02/17 21:10:29;;;;;;;;;;;;;;;5.35;63.42;100483.84;5052883;28;885;-73
2023/02/17 21:12:55;;;;;;;;;;;;;;;5.27;63.19;100491.06;5052744;28;878;-73
2023/02/17 21:15:22;;;;;;;;;;;;;;;5.50;62.17;100488.56;5052351;28;888;-72
2023/02/17 21:17:48;;;;;;;;;;;;;;;5.47;61.76;100486.53;5052546;28;843;-75
2023/02/17 21:20:17;;;;;;;;;;;;;;;5.38;61.98;100485.91;5052467;28;807;-75
2023/02/17 21:22:43;;;;;;;;;;;;;;;5.23;61.84;100487.47;5034554;28;1886;-75
2023/02/17 21:25:10;;;;;;;;;;;;;;;5.02;62.42;100482.97;5052041;28;834;-75
2023/02/17 21:27:37;;;;;;;;;;;;;;;5.04;63.21;100483.44;5034222;28;1289;-75
2023/02/17 21:30:04;;;;;;;;;;;;;;;4.97;63.44;100483.22;5052155;28;806;-75
2023/02/17 21:32:31;;;;;;;;;;;;;;;4.85;63.59;100486.78;5052286;28;961;-73
2023/02/17 21:34:58;;;;;;;;;;;;;;;4.74;64.84;100476.66;5052399;28;846;-74
2023/02/17 21:37:24;;;;;;;;;;;;;;;4.61;66.09;100479.44;5052393;28;818;-73
2023/02/17 21:39:51;;;;;;;;;;;;;;;4.48;66.90;100469.63;5052148;28;894;-74
2023/02/17 21:44:50;;;;;;;;;;;;;;;4.41;67.41;100469.44;5034474;28;1176;-73
2023/02/17 21:45:05;;;;;;;;;;;;;;;4.52;67.00;100470.53;5052197;28;908;-75
2023/02/17 21:47:32;;;;;;;;;;;;;;;4.80;65.86;100464.31;5052729;28;810;-76
2023/02/17 21:49:58;;;;;;;;;;;;;;;4.98;64.32;100459.38;5052818;28;834;-73
2023/02/17 21:52:25;;;;;;;;;;;;;;;5.13;63.55;100450.38;5052966;28;823;-73
2023/02/17 21:54:51;;;;;;;;;;;;;;;5.23;62.93;100449.09;5051686;28;791;-74
2023/02/17 21:57:18;;;;;;;;;;;;;;;5.29;62.76;100439.44;5051993;28;1184;-73
2023/02/17 21:59:44;;;;;;;;;;;;;;;5.37;62.16;100443.97;5053165;28;807;-73
2023/02/17 22:02:11;;;;;;;;;;;;;;;5.43;61.92;100445.31;5052784;28;835;-73
2023/02/17 22:04:37;;;;;;;;;;;;;;;5.53;62.04;100449.50;5034658;28;1969;-73
2023/02/17 22:07:04;;;;;;;;;;;;;;;5.45;61.83;100444.97;5052807;28;835;-76
2023/02/17 22:09:31;;;;;;;;;;;;;;;5.37;62.36;100454.16;5052242;28;854;-74
2023/02/17 22:11:57;;;;;;;;;;;;;;;4.85;62.26;100455.88;5052102;28;834;-75
2023/02/17 22:14:23;;;;;;;;;;;;;;;4.22;63.75;100448.91;5052835;28;865;-74
2023/02/17 22:16:50;;;;;;;;;;;;;;;3.68;65.65;100449.16;5053683;28;869;-74
2023/02/17 22:19:18;;;;;;;;;;;;;;;3.37;66.60;100439.53;5052977;28;815;-74
2023/02/17 22:21:45;;;;;;;;;;;;;;;3.21;68.98;100442.09;5056294;28;830;-73
2023/02/17 22:24:12;;;;;;;;;;;;;;;3.22;70.12;100437.44;5038698;28;1886;-75
2023/02/17 22:26:38;;;;;;;;;;;;;;;3.18;70.60;100434.59;5056439;28;810;-77
2023/02/17 22:29:05;;;;;;;;;;;;;;;3.16;70.69;100431.41;5056767;28;811;-74
2023/02/17 22:31:32;;;;;;;;;;;;;;;3.02;70.96;100436.34;5056479;28;814;-74
2023/02/17 22:34:00;;;;;;;;;;;;;;;2.82;72.33;100425.13;5039038;28;864;-74
2023/02/17 22:36:27;;;;;;;;;;;;;;;2.84;72.76;100435.72;5055939;28;862;-73
2023/02/17 22:38:54;;;;;;;;;;;;;;;3.20;73.20;100432.31;5055002;28;865;-73
2023/02/17 22:41:22;;;;;;;;;;;;;;;3.28;71.69;100436.88;5055284;28;1055;-74
2023/02/17 22:43:48;;;;;;;;;;;;;;;3.31;72.58;100427.22;5036821;28;1906;-73
2023/02/17 22:46:17;;;;;;;;;;;;;;;3.37;72.36;100430.53;5054468;28;886;-75
2023/02/17 22:48:44;;;;;;;;;;;;;;;3.28;73.69;100433.34;5036738;28;1263;-76
2023/02/17 22:51:12;;;;;;;;;;;;;;;3.26;74.24;100432.91;5054859;28;775;-75
2023/02/17 22:53:39;;;;;;;;;;;;;;;3.12;75.44;100437.88;5054524;28;834;-76
2023/02/17 22:56:06;;;;;;;;;;;;;;;2.95;77.56;100436.91;5055089;28;739;-75
2023/02/17 22:58:34;;;;;;;;;;;;;;;2.95;78.10;100434.16;5055499;28;1306;-73
2023/02/17 23:01:11;;;;;;;;;;;;;;;2.97;77.96;100439.31;5056186;28;838;-73
2023/02/17 23:03:37;;;;;;;;;;;;;;;2.92;79.03;100421.16;5055448;28;1906;-75
2023/02/17 23:06:06;;;;;;;;;;;;;;;3.30;77.58;100431.09;5055204;28;830;-72
2023/02/17 23:08:33;;;;;;;;;;;;;;;3.71;75.23;100429.31;5055430;28;866;-72
2023/02/17 23:11:02;;;;;;;;;;;;;;;3.94;73.75;100434.34;5055557;28;897;-72
